Time;durP1;ratioP1;P1;durP2;ratioP2;P2;SDS_P1;SDS_P2;PMS_P1;PMS_P2;Temp;Humidity;BMP_temperature;BMP_pressure;BME280_temperature;BME280_humidity;BME280_pressure;Samples;Min_cycle;Max_cycle;Signal;HPM_P1;HPM_P2
2022/04/09 00:00:32;;;;;;;0.40;0.40;;;1.10;99.90;;;;;;4972127;28;20180;-72
2022/04/09 00:02:58;;;;;;;0.40;0.40;;;1.10;99.90;;;;;;4972491;28;20263;-72
2022/04/09 00:05:25;;;;;;;0.50;0.50;;;1.10;99.90;;;;;;4972288;28;20933;-73
2022/04/09 00:07:51;;;;;;;0.43;0.43;;;1.10;99.90;;;;;;4972504;28;20391;-72
2022/04/09 00:10:17;;;;;;;0.57;0.57;;;1.20;99.90;;;;;;4972207;28;20397;-73
2022/04/09 00:12:47;;;;;;;0.53;0.53;;;1.20;99.90;;;;;;4972185;28;20204;-73
2022/04/09 00:15:13;;;;;;;0.57;0.57;;;1.20;99.90;;;;;;4972265;28;20398;-72
2022/04/09 00:17:41;;;;;;;0.40;0.40;;;1.20;99.90;;;;;;4972659;28;20415;-72
2022/04/09 00:20:08;;;;;;;0.47;0.47;;;1.30;99.90;;;;;;4972161;28;20447;-72
2022/04/09 00:22:34;;;;;;;0.50;0.50;;;1.30;99.90;;;;;;4971841;28;20847;-73
2022/04/09 00:25:00;;;;;;;0.50;0.50;;;1.30;99.90;;;;;;4972299;28;20437;-73
2022/04/09 00:27:26;;;;;;;0.50;0.50;;;1.30;99.90;;;;;;4972031;28;20402;-73
2022/04/09 00:29:52;;;;;;;0.70;0.70;;;1.30;99.90;;;;;;4972297;28;20782;-73
2022/04/09 00:32:18;;;;;;;0.63;0.63;;;1.30;99.90;;;;;;4971959;28;20262;-73
2022/04/09 00:34:44;;;;;;;0.40;0.40;;;1.30;99.90;;;;;;4974274;28;20417;-73
2022/04/09 00:37:09;;;;;;;0.80;0.80;;;1.40;99.90;;;;;;4974549;28;20728;-73
2022/04/09 00:39:35;;;;;;;0.70;0.70;;;1.30;99.90;;;;;;4973830;28;20168;-73
2022/04/09 00:42:00;;;;;;;0.70;0.70;;;1.40;99.90;;;;;;4972615;28;20210;-73
2022/04/09 00:44:26;;;;;;;0.73;0.73;;;1.30;99.90;;;;;;4972348;28;20697;-73
2022/04/09 00:46:51;;;;;;;1.00;0.80;;;1.30;99.90;;;;;;4972323;28;20194;-73
2022/04/09 00:49:17;;;;;;;0.50;0.50;;;1.30;99.90;;;;;;4972053;28;20176;-72
2022/04/09 00:51:45;;;;;;;0.40;0.40;;;1.30;99.90;;;;;;4972028;28;20215;-72
2022/04/09 00:54:12;;;;;;;0.30;0.30;;;1.30;99.90;;;;;;4972315;28;20196;-73
2022/04/09 00:56:39;;;;;;;0.40;0.40;;;1.30;99.90;;;;;;4972612;28;20781;-73
2022/04/09 00:59:10;;;;;;;0.40;0.40;;;1.30;99.90;;;;;;4972148;28;20413;-74
2022/04/09 02:32:02;;;;;;;3.13;2.73;;;1.70;99.90;;;;;;5425760;23;20444;-74
2022/04/09 02:34:28;;;;;;;7.13;2.93;;;1.70;99.90;;;;;;4972579;28;21011;-73
2022/04/09 02:36:54;;;;;;;2.90;2.70;;;1.70;99.90;;;;;;4974062;28;20507;-74
2022/04/09 02:39:21;;;;;;;4.00;3.60;;;1.70;99.90;;;;;;4967255;28;20676;-74
2022/04/09 02:41:48;;;;;;;5.53;3.47;;;1.70;99.90;;;;;;4971014;28;20419;-75
2022/04/09 02:44:14;;;;;;;3.20;3.00;;;1.70;99.90;;;;;;4974000;28;20415;-74
2022/04/09 02:46:39;;;;;;;3.17;2.90;;;1.70;99.90;;;;;;4970750;28;20419;-74
2022/04/09 02:49:05;;;;;;;7.40;3.47;;;1.70;99.90;;;;;;4973992;28;20211;-74
2022/04/09 02:51:30;;;;;;;6.50;4.40;;;1.80;99.90;;;;;;4973744;28;20205;-74
2022/04/09 02:53:56;;;;;;;8.33;3.37;;;1.80;99.90;;;;;;4974272;28;20195;-74
2022/04/09 02:56:21;;;;;;;2.87;2.67;;;1.80;99.90;;;;;;4974135;28;20199;-72
2022/04/09 02:58:47;;;;;;;4.07;3.67;;;1.80;99.90;;;;;;4975648;28;20574;-72
2022/04/09 03:01:12;;;;;;;4.17;3.77;;;1.80;99.90;;;;;;4975333;28;20202;-72
2022/04/09 03:03:38;;;;;;;5.00;4.50;;;1.80;99.90;;;;;;4975300;28;20184;-72
2022/04/09 03:06:03;;;;;;;3.87;3.57;;;1.80;99.90;;;;;;4975013;28;20691;-71
2022/04/09 03:08:29;;;;;;;3.60;3.30;;;1.80;99.90;;;;;;4974822;28;20693;-72
2022/04/09 03:10:55;;;;;;;3.67;3.37;;;1.80;99.90;;;;;;4974426;28;20196;-72
2022/04/09 03:13:20;;;;;;;4.60;4.03;;;1.90;99.90;;;;;;4973789;28;20230;-72
2022/04/09 03:15:46;;;;;;;4.67;4.27;;;1.90;99.90;;;;;;4973631;28;20204;-72
2022/04/09 03:18:11;;;;;;;2.97;2.77;;;1.90;99.90;;;;;;4973759;28;20180;-72
2022/04/09 03:20:38;;;;;;;4.50;3.70;;;1.90;99.90;;;;;;4973090;28;20176;-71
2022/04/09 03:23:03;;;;;;;4.40;3.43;;;1.90;99.90;;;;;;4972379;28;20206;-73
2022/04/09 03:25:29;;;;;;;6.60;3.90;;;1.90;99.90;;;;;;4972094;28;20956;-71
2022/04/09 03:27:54;;;;;;;4.60;4.13;;;1.90;99.90;;;;;;4972324;28;20184;-72
2022/04/09 03:30:20;;;;;;;7.33;2.90;;;1.90;99.90;;;;;;4973338;28;20191;-72
2022/04/09 03:32:46;;;;;;;3.53;3.23;;;1.90;99.90;;;;;;4973150;28;20224;-72
2022/04/09 03:35:12;;;;;;;3.50;3.20;;;2.00;99.90;;;;;;4973503;28;20264;-72
2022/04/09 03:37:38;;;;;;;3.40;3.10;;;2.00;99.90;;;;;;4973212;28;20185;-71
2022/04/09 03:40:05;;;;;;;3.33;2.97;;;2.10;99.90;;;;;;4973321;28;20768;-72
2022/04/09 03:42:32;;;;;;;5.27;4.87;;;2.00;99.90;;;;;;4972688;28;20450;-72
2022/04/09 03:44:57;;;;;;;4.37;3.83;;;2.10;99.90;;;;;;4973041;28;20763;-72
2022/04/09 03:47:23;;;;;;;4.37;4.07;;;2.10;99.90;;;;;;4973057;28;20457;-72
2022/04/09 03:49:49;;;;;;;5.70;4.50;;;2.10;99.90;;;;;;4973078;28;20188;-74
2022/04/09 03:52:14;;;;;;;7.83;6.07;;;2.20;99.90;;;;;;4972643;28;20243;-74
2022/04/09 03:54:40;;;;;;;6.53;5.80;;;2.20;99.90;;;;;;4972975;28;20881;-74
2022/04/09 03:57:06;;;;;;;8.47;6.27;;;2.20;99.90;;;;;;4973135;28;20183;-74
2022/04/09 03:59:31;;;;;;;10.03;7.47;;;2.20;99.90;;;;;;4972778;28;20174;-74
2022/04/09 04:01:57;;;;;;;10.27;7.40;;;2.20;99.90;;;;;;4972924;28;20680;-74
2022/04/09 04:04:23;;;;;;;19.30;8.90;;;2.20;99.90;;;;;;4972584;28;20205;-74
2022/04/09 04:06:48;;;;;;;11.30;8.97;;;2.30;99.90;;;;;;4972960;28;20172;-74
2022/04/09 04:09:16;;;;;;;14.33;9.70;;;2.30;99.90;;;;;;4972807;28;20199;-74
2022/04/09 04:11:45;;;;;;;12.30;9.70;;;2.30;99.90;;;;;;4972471;28;20685;-74
2022/04/09 04:14:11;;;;;;;12.93;10.20;;;2.30;99.90;;;;;;4972779;28;20462;-75
2022/04/09 04:16:37;;;;;;;16.67;10.87;;;2.30;99.90;;;;;;4972569;28;20434;-74
2022/04/09 04:19:04;;;;;;;13.57;9.00;;;2.30;99.90;;;;;;4972699;28;20912;-75
2022/04/09 04:21:29;;;;;;;12.07;10.23;;;2.30;99.90;;;;;;4972193;28;20432;-75
2022/04/09 04:23:55;;;;;;;14.53;9.57;;;2.30;99.90;;;;;;4972755;28;20419;-74
2022/04/09 04:26:20;;;;;;;12.10;9.30;;;2.20;99.90;;;;;;4972785;28;20240;-75
2022/04/09 04:28:48;;;;;;;36.37;11.07;;;2.20;99.90;;;;;;4972470;28;20172;-74
2022/04/09 04:31:15;;;;;;;18.97;11.53;;;2.20;99.90;;;;;;4972170;28;20204;-74
2022/04/09 04:33:41;;;;;;;14.80;9.83;;;2.20;99.90;;;;;;4972474;28;20430;-74
2022/04/09 04:36:06;;;;;;;17.97;11.37;;;2.20;99.90;;;;;;4972712;28;20960;-74
2022/04/09 04:38:32;;;;;;;18.90;10.70;;;2.10;99.90;;;;;;4974325;28;20220;-74
2022/04/09 04:40:57;;;;;;;18.53;9.90;;;2.10;99.90;;;;;;4976667;28;20209;-74
2022/04/09 04:43:23;;;;;;;18.00;11.03;;;2.10;99.90;;;;;;4976026;28;20189;-74
2022/04/09 04:45:48;;;;;;;19.60;11.83;;;2.00;99.90;;;;;;4976413;28;20181;-75
2022/04/09 04:48:14;;;;;;;15.50;10.90;;;2.00;99.90;;;;;;4976214;28;20555;-74
2022/04/09 04:50:39;;;;;;;17.23;9.97;;;2.00;99.90;;;;;;4975859;28;20216;-74
2022/04/09 04:53:05;;;;;;;17.97;10.30;;;2.10;99.90;;;;;;4976000;28;20236;-74
2022/04/09 04:55:30;;;;;;;16.40;10.77;;;2.00;99.90;;;;;;4976052;28;20168;-74
2022/04/09 04:57:56;;;;;;;20.10;11.00;;;2.10;99.90;;;;;;4976232;28;20189;-74
2022/04/09 05:00:24;;;;;;;16.80;10.93;;;2.10;99.90;;;;;;4976210;28;20170;-75
2022/04/09 05:02:51;;;;;;;14.83;9.80;;;2.10;99.90;;;;;;4975710;28;20598;-74
2022/04/09 05:05:16;;;;;;;14.53;10.30;;;2.10;99.90;;;;;;4975786;28;20910;-71
2022/04/09 05:07:50;;;;;;;15.80;10.70;;;2.10;99.90;;;;;;4975737;28;20504;-72
2022/04/09 05:10:18;;;;;;;15.80;10.07;;;2.10;99.90;;;;;;4975648;28;20413;-72
2022/04/09 05:12:44;;;;;;;15.40;11.80;;;2.10;99.90;;;;;;4975262;28;20956;-69
2022/04/09 05:15:12;;;;;;;17.87;11.57;;;2.20;99.90;;;;;;4975648;28;20892;-71
2022/04/09 05:17:38;;;;;;;13.00;10.40;;;2.30;99.90;;;;;;4975501;28;21019;-71
2022/04/09 05:20:05;;;;;;;12.93;10.40;;;2.40;99.90;;;;;;4975595;28;20419;-71
2022/04/09 05:22:31;;;;;;;15.50;9.40;;;2.50;99.90;;;;;;4969681;28;20607;-72
2022/04/09 05:24:57;;;;;;;15.17;10.50;;;2.50;99.90;;;;;;4964529;28;20404;-71
2022/04/09 05:27:23;;;;;;;17.50;10.03;;;2.70;99.90;;;;;;4955881;29;20764;-73
2022/04/09 05:29:49;;;;;;;15.63;9.30;;;3.00;99.90;;;;;;4956064;28;20419;-71
2022/04/09 05:32:15;;;;;;;13.73;9.37;;;3.20;99.90;;;;;;4955498;28;20450;-72
2022/04/09 05:34:40;;;;;;;11.90;7.23;;;3.80;99.90;;;;;;4955915;28;20205;-72
2022/04/09 05:37:06;;;;;;;10.23;8.20;;;4.20;99.90;;;;;;4956566;29;20419;-73
2022/04/09 05:39:31;;;;;;;8.07;6.97;;;4.50;99.90;;;;;;4955620;28;20270;-72
2022/04/09 05:41:57;;;;;;;12.00;8.10;;;4.90;99.90;;;;;;4955621;28;20634;-73
2022/04/09 05:44:22;;;;;;;11.97;7.23;;;5.40;99.90;;;;;;4955587;28;20200;-72
2022/04/09 05:46:48;;;;;;;10.93;7.53;;;5.30;99.90;;;;;;4955939;29;20180;-72
2022/04/09 05:49:13;;;;;;;10.37;7.67;;;5.10;99.90;;;;;;4955512;28;20180;-72
2022/04/09 05:51:39;;;;;;;9.53;7.30;;;5.10;99.90;;;;;;4954197;28;20225;-74
2022/04/09 05:54:05;;;;;;;7.63;6.87;;;4.90;99.90;;;;;;4955607;29;20550;-71
2022/04/09 05:56:31;;;;;;;9.30;8.20;;;5.10;99.90;;;;;;4955355;29;20897;-72
2022/04/09 05:58:57;;;;;;;9.07;6.43;;;5.40;99.90;;;;;;4955439;29;20500;-72
2022/04/09 06:01:22;;;;;;;11.97;6.40;;;5.60;99.90;;;;;;4954944;28;20205;-72
2022/04/09 06:03:48;;;;;;;7.70;7.00;;;5.40;99.90;;;;;;4955370;28;20695;-73
2022/04/09 06:06:13;;;;;;;7.70;6.90;;;5.20;99.90;;;;;;4955217;28;20187;-71
2022/04/09 06:08:39;;;;;;;9.53;7.30;;;5.10;99.90;;;;;;4955379;29;20218;-71
2022/04/09 06:11:05;;;;;;;7.43;6.60;;;4.90;99.90;;;;;;4953700;28;20195;-72
2022/04/09 06:13:31;;;;;;;9.90;7.00;;;5.00;99.90;;;;;;4956072;29;20450;-72
2022/04/09 06:15:58;;;;;;;6.30;4.90;;;5.80;99.90;;;;;;4957745;29;20406;-73
2022/04/09 06:18:24;;;;;;;8.00;6.00;;;7.10;99.90;;;;;;4955957;29;20428;-73
2022/04/09 06:20:49;;;;;;;7.97;5.00;;;8.80;99.90;;;;;;4956076;28;20555;-73
2022/04/09 06:23:15;;;;;;;6.60;5.33;;;10.10;99.90;;;;;;4957047;29;20247;-73
2022/04/09 06:25:41;;;;;;;9.40;4.67;;;10.80;99.90;;;;;;4956978;29;20208;-73
2022/04/09 06:28:08;;;;;;;4.30;3.90;;;11.70;99.90;;;;;;4955979;29;20256;-73
2022/04/09 06:30:34;;;;;;;4.70;4.30;;;12.20;99.90;;;;;;4955393;28;20235;-73
2022/04/09 06:33:00;;;;;;;7.50;5.43;;;12.20;99.90;;;;;;4955735;29;20483;-74
2022/04/09 06:35:26;;;;;;;5.63;5.07;;;12.50;99.90;;;;;;4956297;28;20412;-74
2022/04/09 06:37:52;;;;;;;7.20;4.67;;;12.80;99.90;;;;;;4955073;28;20417;-74
2022/04/09 06:40:18;;;;;;;5.80;4.77;;;13.10;99.90;;;;;;4954794;28;20424;-74
2022/04/09 06:42:43;;;;;;;8.97;5.10;;;12.90;99.90;;;;;;4954452;28;20440;-73
2022/04/09 06:45:10;;;;;;;7.43;4.83;;;12.30;99.90;;;;;;4954498;29;20264;-73
2022/04/09 06:47:37;;;;;;;6.33;4.63;;;12.10;99.90;;;;;;4954505;29;20180;-74
2022/04/09 06:50:11;;;;;;;5.40;4.90;;;11.40;99.90;;;;;;4960925;28;20935;-74
2022/04/09 06:52:37;;;;;;;6.43;4.70;;;10.60;99.90;;;;;;4970996;28;20775;-73
2022/04/09 06:55:04;;;;;;;8.43;5.43;;;9.80;99.90;;;;;;4973610;28;20499;-73
2022/04/09 06:57:29;;;;;;;8.50;5.10;;;9.60;99.90;;;;;;4973617;28;20180;-74
2022/04/09 06:59:59;;;;;;;5.90;5.03;;;9.30;99.90;;;;;;4972209;28;20506;-74
2022/04/09 07:02:25;;;;;;;6.50;5.20;;;9.30;99.90;;;;;;4972954;28;20209;-74
2022/04/09 07:04:51;;;;;;;6.37;5.20;;;9.00;99.90;;;;;;4973550;28;20518;-74
2022/04/09 07:07:24;;;;;;;8.40;6.17;;;9.20;99.90;;;;;;4972239;28;20218;-74
2022/04/09 07:09:52;;;;;;;8.20;4.97;;;9.20;99.90;;;;;;4973541;28;20549;-73
2022/04/09 07:12:17;;;;;;;5.50;4.37;;;9.30;99.90;;;;;;4973207;28;20497;-74
2022/04/09 07:14:43;;;;;;;5.90;4.90;;;9.40;99.90;;;;;;4973228;28;20970;-74
2022/04/09 07:17:08;;;;;;;6.17;4.63;;;9.30;99.90;;;;;;4973387;28;20187;-74
2022/04/09 07:19:34;;;;;;;6.23;4.77;;;9.00;99.90;;;;;;4973155;28;20488;-72
2022/04/09 07:22:00;;;;;;;6.80;4.93;;;9.30;99.90;;;;;;4973014;28;20704;-73
2022/04/09 07:24:26;;;;;;;9.27;6.00;;;9.30;99.90;;;;;;4972982;28;20198;-73
2022/04/09 07:26:51;;;;;;;10.70;5.10;;;9.40;99.90;;;;;;4973239;28;20201;-72
2022/04/09 07:29:17;;;;;;;5.43;4.90;;;9.50;99.90;;;;;;4972858;28;20273;-71
2022/04/09 07:31:42;;;;;;;9.30;5.40;;;9.20;99.90;;;;;;4972787;28;20276;-73
2022/04/09 07:34:08;;;;;;;6.40;4.43;;;8.80;99.90;;;;;;4973216;28;20173;-73
2022/04/09 07:36:33;;;;;;;11.17;5.00;;;8.60;99.90;;;;;;4972945;28;20174;-72
2022/04/09 07:38:59;;;;;;;4.63;4.20;;;8.60;99.90;;;;;;4972927;28;20176;-72
2022/04/09 07:41:25;;;;;;;7.07;4.50;;;8.50;99.90;;;;;;4972455;28;20249;-73
2022/04/09 07:43:51;;;;;;;10.47;4.67;;;8.40;99.90;;;;;;4973009;28;20182;-73
2022/04/09 07:46:16;;;;;;;5.07;4.57;;;8.40;99.90;;;;;;4972678;28;20267;-72
2022/04/09 07:48:42;;;;;;;8.47;4.40;;;8.20;99.90;;;;;;4972871;28;20275;-72
2022/04/09 07:51:07;;;;;;;14.77;4.30;;;8.00;99.90;;;;;;4972559;28;20198;-72
2022/04/09 07:53:33;;;;;;;4.57;3.93;;;7.70;99.90;;;;;;4972516;28;20258;-73
2022/04/09 07:55:59;;;;;;;4.80;4.33;;;7.40;99.90;;;;;;4973040;28;20253;-72
2022/04/09 07:58:24;;;;;;;10.40;4.50;;;7.10;99.90;;;;;;4972421;28;20181;-72
2022/04/09 08:00:50;;;;;;;6.13;4.40;;;6.80;99.90;;;;;;4972516;28;20718;-72
2022/04/09 08:03:16;;;;;;;8.83;4.00;;;6.70;99.90;;;;;;4972340;28;20184;-73
2022/04/09 08:05:42;;;;;;;7.03;4.23;;;6.60;99.90;;;;;;4972877;28;20591;-72
2022/04/09 08:08:08;;;;;;;4.40;3.43;;;6.50;99.90;;;;;;4972231;28;20177;-73
2022/04/09 08:10:34;;;;;;;4.93;3.93;;;6.40;99.90;;;;;;4972399;28;20946;-72
2022/04/09 08:13:00;;;;;;;7.93;4.37;;;6.30;99.90;;;;;;4971725;28;20226;-73
2022/04/09 08:15:26;;;;;;;5.50;3.70;;;6.10;99.90;;;;;;4975376;28;20606;-73
2022/04/09 08:17:54;;;;;;;5.57;4.00;;;6.10;99.90;;;;;;4976491;28;20410;-73
2022/04/09 08:20:20;;;;;;;10.50;3.63;;;6.00;99.90;;;;;;4976600;28;20830;-73
2022/04/09 08:22:46;;;;;;;8.60;4.20;;;6.00;99.90;;;;;;4975794;28;20778;-73
2022/04/09 08:25:12;;;;;;;5.93;3.80;;;6.10;99.90;;;;;;4975939;28;20415;-72
2022/04/09 08:27:38;;;;;;;12.60;5.30;;;6.20;99.90;;;;;;4976009;28;20680;-72
2022/04/09 08:30:06;;;;;;;9.63;5.10;;;6.30;99.90;;;;;;4976413;28;20199;-73
2022/04/09 08:32:32;;;;;;;5.20;3.20;;;6.30;99.90;;;;;;4975805;28;20460;-73
2022/04/09 08:34:58;;;;;;;7.40;5.00;;;6.30;99.90;;;;;;4976314;28;20406;-74
2022/04/09 08:37:23;;;;;;;7.37;4.80;;;6.20;99.90;;;;;;4976035;28;20908;-73
2022/04/09 08:39:50;;;;;;;6.47;4.00;;;6.20;99.90;;;;;;4976143;28;20996;-73
2022/04/09 08:42:16;;;;;;;6.53;4.10;;;6.20;99.90;;;;;;4976045;28;20210;-73
2022/04/09 08:44:41;;;;;;;7.63;4.83;;;6.20;99.90;;;;;;4976074;28;20772;-73
2022/04/09 08:47:08;;;;;;;8.27;4.70;;;6.20;99.90;;;;;;4975968;28;20812;-73
2022/04/09 08:49:40;;;;;;;7.33;4.40;;;5.90;99.90;;;;;;4975856;28;20202;-73
2022/04/09 08:52:08;;;;;;;6.80;4.40;;;5.90;99.90;;;;;;4975959;28;20472;-73
2022/04/09 08:54:38;;;;;;;8.43;4.63;;;6.00;99.90;;;;;;4975742;28;20419;-73
2022/04/09 08:57:05;;;;;;;7.13;4.50;;;6.00;99.90;;;;;;4976003;28;20931;-73
2022/04/09 08:59:31;;;;;;;7.13;4.23;;;6.10;99.90;;;;;;4975675;28;20432;-73
2022/04/09 09:01:57;;;;;;;9.57;4.60;;;6.40;99.90;;;;;;4975504;28;20418;-73
2022/04/09 09:04:23;;;;;;;13.33;4.50;;;6.50;99.90;;;;;;4975462;28;20507;-73
2022/04/09 09:06:48;;;;;;;4.90;4.40;;;6.90;99.90;;;;;;4975763;28;20197;-73
2022/04/09 09:09:31;;;;;;;10.60;4.47;;;7.10;99.90;;;;;;4975528;28;20179;-74
2022/04/09 09:11:59;;;;;;;6.50;4.10;;;7.50;99.90;;;;;;4974132;28;20211;-73
2022/04/09 09:14:28;;;;;;;5.73;4.00;;;7.90;99.90;;;;;;4975368;28;20982;-73
2022/04/09 09:16:54;;;;;;;8.37;3.70;;;8.00;99.90;;;;;;4975526;28;20461;-72
2022/04/09 09:19:21;;;;;;;4.13;3.47;;;8.40;99.90;;;;;;4975292;28;20450;-73
2022/04/09 09:21:56;;;;;;;5.40;3.57;;;8.90;99.90;;;;;;4975330;28;20437;-73
2022/04/09 09:24:22;;;;;;;7.33;3.30;;;9.20;99.90;;;;;;4975099;28;20438;-73
2022/04/09 09:26:58;;;;;;;7.90;4.10;;;9.50;99.90;;;;;;4975450;28;20475;-73
2022/04/09 09:29:27;;;;;;;10.50;3.70;;;9.60;99.90;;;;;;4975147;28;20948;-73
2022/04/09 09:31:53;;;;;;;8.43;3.77;;;9.80;99.90;;;;;;4974846;28;20472;-73
2022/04/09 09:34:20;;;;;;;7.83;3.40;;;10.00;99.90;;;;;;4975092;28;20414;-73
2022/04/09 09:36:46;;;;;;;8.97;3.50;;;10.20;99.90;;;;;;4975099;28;20823;-74
2022/04/09 09:39:13;;;;;;;6.43;3.30;;;9.70;99.90;;;;;;4974987;28;20418;-74
2022/04/09 09:41:51;;;;;;;5.47;2.63;;;9.70;99.90;;;;;;4974788;28;20949;-73
2022/04/09 09:44:18;;;;;;;4.90;3.27;;;9.50;99.90;;;;;;4974858;28;20419;-74
2022/04/09 09:46:46;;;;;;;3.33;2.53;;;9.20;99.90;;;;;;4975087;28;20408;-73
2022/04/09 09:49:12;;;;;;;6.70;3.23;;;8.80;99.90;;;;;;4975014;28;20495;-73
2022/04/09 09:51:38;;;;;;;10.30;3.40;;;8.50;99.90;;;;;;4974433;28;20528;-73
2022/04/09 09:54:13;;;;;;;6.40;2.83;;;8.20;99.90;;;;;;4974826;28;20422;-73
2022/04/09 09:56:43;;;;;;;5.60;3.83;;;7.80;99.90;;;;;;4974913;28;20173;-73
2022/04/09 09:59:11;;;;;;;5.13;3.00;;;7.80;99.90;;;;;;4974809;28;20799;-73
2022/04/09 10:01:48;;;;;;;4.60;3.20;;;7.80;99.90;;;;;;4974779;28;20834;-73
2022/04/09 10:04:14;;;;;;;8.10;4.13;;;8.00;99.90;;;;;;4974471;28;20539;-74
2022/04/09 10:06:42;;;;;;;3.73;2.70;;;8.30;99.90;;;;;;4974865;28;20497;-74
2022/04/09 10:09:09;;;;;;;3.63;2.60;;;8.40;99.90;;;;;;4974616;28;20226;-73
2022/04/09 10:11:43;;;;;;;4.57;2.73;;;8.20;99.90;;;;;;4974056;28;20924;-73
2022/04/09 10:14:12;;;;;;;6.17;2.57;;;8.40;99.90;;;;;;4973297;28;20437;-73
2022/04/09 10:16:41;;;;;;;8.63;3.30;;;8.60;99.90;;;;;;4974596;28;20449;-73
2022/04/09 10:19:09;;;;;;;4.63;3.20;;;9.00;99.90;;;;;;4974440;28;20428;-74
2022/04/09 10:21:39;;;;;;;6.13;2.60;;;9.20;99.90;;;;;;4973906;28;20515;-73
2022/04/09 10:24:12;;;;;;;4.30;2.63;;;9.90;99.90;;;;;;4974562;28;20845;-73
2022/04/09 10:26:38;;;;;;;6.73;1.90;;;10.60;99.90;;;;;;4974301;28;20825;-74
2022/04/09 10:29:07;;;;;;;10.23;2.70;;;11.50;99.90;;;;;;4976847;28;20414;-74
2022/04/09 10:31:34;;;;;;;5.13;2.77;;;11.10;99.90;;;;;;4976211;28;20211;-73
2022/04/09 10:34:01;;;;;;;5.33;2.63;;;10.40;99.90;;;;;;4974414;28;20425;-73
2022/04/09 10:36:45;;;;;;;3.77;2.47;;;9.90;99.90;;;;;;4973571;28;20790;-73
2022/04/09 10:39:40;;;;;;;7.23;2.60;;;9.80;99.90;;;;;;4972792;28;20852;-73
2022/04/09 10:42:30;;;;;;;3.83;2.90;;;9.40;99.90;;;;;;4972664;28;20548;-74
2022/04/09 10:44:55;;;;;;;3.40;2.43;;;9.40;99.90;;;;;;4973781;28;20438;-72
2022/04/09 10:47:21;;;;;;;4.33;2.87;;;9.20;99.90;;;;;;4973070;28;20441;-72
2022/04/09 10:50:02;;;;;;;7.40;2.50;;;8.60;99.90;;;;;;4973385;28;20182;-73
2022/04/09 10:52:30;;;;;;;4.83;2.73;;;8.60;99.90;;;;;;4973210;28;20274;-72
2022/04/09 10:55:15;;;;;;;7.23;2.90;;;8.60;99.90;;;;;;4972189;28;20426;-72
2022/04/09 10:57:46;;;;;;;4.80;2.27;;;8.90;99.90;;;;;;4973746;28;20503;-73
2022/04/09 11:00:23;;;;;;;3.40;2.30;;;9.30;99.90;;;;;;4972287;28;20840;-73
2022/04/09 11:03:11;;;;;;;2.90;2.13;;;9.20;99.90;;;;;;4973566;28;20439;-72
2022/04/09 11:05:39;;;;;;;4.73;2.47;;;9.30;99.90;;;;;;4973201;28;20421;-73
2022/04/09 11:08:10;;;;;;;3.70;2.67;;;8.90;99.90;;;;;;4973543;28;20430;-72
2022/04/09 11:10:36;;;;;;;4.27;3.07;;;8.70;99.90;;;;;;4971498;28;20520;-72
2022/04/09 11:13:03;;;;;;;5.70;3.07;;;9.00;99.90;;;;;;4973226;28;20499;-72
2022/04/09 11:15:29;;;;;;;8.17;2.10;;;9.50;99.90;;;;;;4973118;28;20499;-72
2022/04/09 11:18:01;;;;;;;4.50;2.60;;;10.00;99.90;;;;;;4973292;28;20505;-73
2022/04/09 11:20:34;;;;;;;8.13;2.50;;;10.70;99.90;;;;;;4973041;28;20190;-73
2022/04/09 11:23:17;;;;;;;3.60;2.10;;;10.50;99.90;;;;;;4973252;28;20973;-73
2022/04/09 11:25:43;;;;;;;4.90;2.17;;;10.70;99.90;;;;;;4973261;28;20422;-72
2022/04/09 11:28:13;;;;;;;6.53;3.40;;;11.10;99.90;;;;;;4973195;28;20421;-72
2022/04/09 11:30:54;;;;;;;5.40;2.30;;;11.10;99.90;;;;;;4972624;28;20427;-72
2022/04/09 11:33:21;;;;;;;6.40;2.43;;;10.40;99.90;;;;;;4973023;28;21034;-74
2022/04/09 11:35:46;;;;;;;7.17;2.37;;;9.90;99.90;;;;;;4973394;28;21020;-74
2022/04/09 11:38:12;;;;;;;9.60;2.60;;;9.70;99.90;;;;;;4972829;28;20433;-73
2022/04/09 11:40:46;;;;;;;4.07;2.20;;;9.90;99.90;;;;;;4971464;28;20187;-71
2022/04/09 11:43:13;;;;;;;4.03;2.40;;;9.80;99.90;;;;;;4972973;28;20190;-73
2022/04/09 11:45:39;;;;;;;5.27;2.40;;;9.60;99.90;;;;;;4972815;28;20425;-73
2022/04/09 11:48:05;;;;;;;4.60;2.87;;;9.80;99.90;;;;;;4972282;28;20416;-74
2022/04/09 11:50:39;;;;;;;7.43;2.30;;;10.10;99.90;;;;;;4972180;28;20217;-73
2022/04/09 11:53:21;;;;;;;4.93;2.60;;;10.40;99.90;;;;;;4972891;28;20233;-73
2022/04/09 11:55:48;;;;;;;7.43;2.63;;;10.80;99.90;;;;;;4972777;28;20422;-74
2022/04/09 11:58:15;;;;;;;8.23;3.67;;;11.10;99.90;;;;;;4971565;28;20872;-73
2022/04/09 12:00:45;;;;;;;6.00;3.30;;;10.80;99.90;;;;;;4972194;28;20502;-74
2022/04/09 12:03:12;;;;;;;4.77;2.10;;;10.70;99.90;;;;;;4972815;28;20436;-74
2022/04/09 12:05:43;;;;;;;6.50;2.43;;;10.60;99.90;;;;;;4972635;28;20539;-73
2022/04/09 12:08:13;;;;;;;4.47;2.33;;;10.10;99.90;;;;;;4972750;28;20992;-73
2022/04/09 12:11:02;;;;;;;3.10;2.00;;;9.70;99.90;;;;;;4972221;28;20433;-73
2022/04/09 12:13:34;;;;;;;8.70;2.30;;;9.30;99.90;;;;;;4972454;28;20472;-73
2022/04/09 12:16:14;;;;;;;4.73;2.40;;;9.60;99.90;;;;;;4973221;28;20431;-73
2022/04/09 12:18:41;;;;;;;3.90;2.97;;;9.80;99.90;;;;;;4972655;28;20412;-73
2022/04/09 12:21:20;;;;;;;5.10;2.43;;;10.00;99.90;;;;;;4972447;28;20505;-73
2022/04/09 12:23:46;;;;;;;6.63;2.57;;;10.40;99.90;;;;;;4972546;28;20425;-73
2022/04/09 12:26:23;;;;;;;7.27;2.43;;;10.50;99.90;;;;;;4972500;28;20454;-73
2022/04/09 12:29:08;;;;;;;5.00;2.87;;;10.70;99.90;;;;;;4972526;28;20426;-72
2022/04/09 12:31:35;;;;;;;4.20;1.80;;;10.70;99.90;;;;;;4972649;28;20811;-73
2022/04/09 12:34:01;;;;;;;3.50;1.77;;;10.90;99.90;;;;;;4973164;28;20471;-73
2022/04/09 12:36:27;;;;;;;2.63;2.17;;;11.00;99.90;;;;;;4972999;28;20516;-74
2022/04/09 12:38:53;;;;;;;5.10;3.07;;;11.20;99.90;;;;;;4972952;28;20515;-72
2022/04/09 12:41:18;;;;;;;9.03;2.30;;;11.20;99.90;;;;;;4972056;28;20234;-72
2022/04/09 12:43:44;;;;;;;6.97;2.40;;;11.30;99.90;;;;;;4969542;28;20209;-73
2022/04/09 12:46:12;;;;;;;2.60;2.13;;;11.10;99.90;;;;;;4972578;28;20202;-73
2022/04/09 12:48:38;;;;;;;4.87;2.23;;;10.80;99.90;;;;;;4972281;28;20594;-74
2022/04/09 12:51:04;;;;;;;2.60;2.40;;;10.60;99.90;;;;;;4972308;28;20446;-74
2022/04/09 12:53:30;;;;;;;4.30;2.50;;;10.20;99.90;;;;;;4972085;28;20811;-74
2022/04/09 12:55:55;;;;;;;5.90;2.53;;;10.20;99.90;;;;;;4972384;28;20429;-74
2022/04/09 12:58:21;;;;;;;4.40;2.30;;;10.30;99.90;;;;;;4972220;28;20179;-74
2022/04/09 13:00:46;;;;;;;9.97;2.10;;;10.40;99.90;;;;;;4974727;28;20229;-72
2022/04/09 13:03:13;;;;;;;7.17;2.17;;;10.40;99.90;;;;;;4976907;28;20210;-73
2022/04/09 13:05:41;;;;;;;4.87;1.80;;;10.40;99.90;;;;;;4976531;28;20180;-74
2022/04/09 13:08:06;;;;;;;2.87;2.20;;;10.40;99.90;;;;;;4976056;28;20496;-73
2022/04/09 13:10:34;;;;;;;2.63;2.10;;;10.40;99.90;;;;;;4976145;28;20399;-73
2022/04/09 13:13:00;;;;;;;4.20;2.47;;;10.50;99.90;;;;;;4976439;28;20244;-72
2022/04/09 13:15:26;;;;;;;5.00;2.30;;;10.50;99.90;;;;;;4976212;28;20822;-74
2022/04/09 13:17:51;;;;;;;9.50;2.80;;;10.70;99.90;;;;;;4976167;28;20412;-73
2022/04/09 13:20:18;;;;;;;7.50;2.00;;;10.80;99.90;;;;;;4975765;28;20183;-73
2022/04/09 13:22:43;;;;;;;6.57;1.63;;;10.80;99.90;;;;;;4972848;28;20264;-73
2022/04/09 13:25:12;;;;;;;10.60;1.57;;;10.50;99.90;;;;;;4967937;28;20834;-72
2022/04/09 13:27:37;;;;;;;4.93;1.87;;;10.50;99.90;;;;;;4966406;28;20191;-73
2022/04/09 13:30:04;;;;;;;3.83;1.63;;;10.50;99.90;;;;;;4969672;28;20422;-73
2022/04/09 13:32:30;;;;;;;3.33;1.53;;;10.50;99.90;;;;;;4963687;28;20223;-73
2022/04/09 13:34:55;;;;;;;5.07;2.37;;;10.50;99.90;;;;;;4964733;28;20407;-73
2022/04/09 13:37:22;;;;;;;3.80;1.40;;;10.60;99.90;;;;;;4965627;28;20491;-74
2022/04/09 13:39:48;;;;;;;6.00;2.17;;;10.70;99.90;;;;;;4963753;28;20195;-73
2022/04/09 13:42:14;;;;;;;9.27;2.13;;;10.70;99.90;;;;;;4960529;28;20868;-73
2022/04/09 13:44:40;;;;;;;5.80;1.57;;;10.60;99.90;;;;;;4968841;28;20231;-73
2022/04/09 13:47:07;;;;;;;4.70;1.50;;;10.50;99.90;;;;;;4971091;28;20838;-73
2022/04/09 13:49:34;;;;;;;4.60;2.00;;;10.50;99.90;;;;;;4968952;28;20450;-73
2022/04/09 13:51:59;;;;;;;2.57;1.63;;;10.80;99.90;;;;;;4969254;28;20472;-72
2022/04/09 13:54:25;;;;;;;6.00;1.50;;;11.00;99.90;;;;;;4965647;28;20479;-73
2022/04/09 13:56:51;;;;;;;4.27;1.43;;;11.10;99.90;;;;;;4962342;28;20226;-72
2022/04/09 13:59:18;;;;;;;6.60;1.90;;;11.00;99.90;;;;;;4964484;28;20915;-73
2022/04/09 14:01:44;;;;;;;3.03;1.93;;;11.00;99.90;;;;;;4957439;28;20207;-73
2022/04/09 14:04:09;;;;;;;1.73;1.60;;;11.00;99.90;;;;;;4955200;28;20421;-73
2022/04/09 14:06:35;;;;;;;2.23;1.30;;;11.00;99.90;;;;;;4955369;28;20820;-73
2022/04/09 14:09:00;;;;;;;4.83;2.57;;;11.00;99.90;;;;;;4955440;28;20189;-73
2022/04/09 14:11:26;;;;;;;5.87;1.70;;;11.00;99.90;;;;;;4952770;28;20692;-73
2022/04/09 14:13:52;;;;;;;3.73;1.97;;;10.90;99.90;;;;;;4955168;28;20292;-73
2022/04/09 14:16:18;;;;;;;4.03;2.10;;;10.80;99.90;;;;;;4955106;28;20202;-73
2022/04/09 14:18:43;;;;;;;9.20;2.20;;;10.40;99.90;;;;;;4955310;28;20902;-73
2022/04/09 14:21:09;;;;;;;8.20;1.63;;;10.30;99.90;;;;;;4954745;28;20193;-73